Terminal Aerodrome Forecast
Issued by NWS

Home | Current Version | Previous Version | Text Only | Print | Product List | Glossary On
Versions: 1 2 3 4 5 6 7 8 9 10 11 12 13 14 15 16 17 18 19 20 21 22 23 24 25 26 27 28 29
000
FTUS41 KBUF 160531
TAFJHW
TAF
KJHW 160531Z 1606/1706 27014G20KT 2SM -SN BKN006 OVC012
      TEMPO 1606/1610 1SM -SN BKN006
     FM161000 25010KT 1SM -SN OVC007
     FM162000 31007KT P6SM OVC025
     FM162300 VRB03KT P6SM OVC020
      AMD LTD TO CLD VIS AND WIND=

USA.gov is the U.S. government's official web portal to all federal, state and local government web resources and services.